sensor_id;sensor_type;location;lat;lon;timestamp;pressure;altitude;pressure_sealevel;temperature;humidity
4085;BME280;2057;50.858;6.572;2023-09-19T00:00:22;99709.53;;;15.81;100.00
4085;BME280;2057;50.858;6.572;2023-09-19T00:02:55;99710.38;;;15.83;100.00
4085;BME280;2057;50.858;6.572;2023-09-19T00:05:27;99703.47;;;15.76;100.00
4085;BME280;2057;50.858;6.572;2023-09-19T00:07:55;99705.19;;;15.78;100.00
4085;BME280;2057;50.858;6.572;2023-09-19T00:10:21;99700.25;;;15.88;100.00
4085;BME280;2057;50.858;6.572;2023-09-19T00:12:50;99707.81;;;15.81;100.00
4085;BME280;2057;50.858;6.572;2023-09-19T00:15:16;99710.47;;;15.84;100.00
4085;BME280;2057;50.858;6.572;2023-09-19T00:17:42;99715.41;;;15.75;100.00
4085;BME280;2057;50.858;6.572;2023-09-19T00:20:08;99707.91;;;15.84;100.00
4085;BME280;2057;50.858;6.572;2023-09-19T00:22:41;99710.28;;;15.75;100.00
4085;BME280;2057;50.858;6.572;2023-09-19T00:25:09;99723.16;;;15.80;100.00
4085;BME280;2057;50.858;6.572;2023-09-19T00:27:35;99724.91;;;15.82;100.00
4085;BME280;2057;50.858;6.572;2023-09-19T00:30:07;99733.41;;;15.81;100.00
4085;BME280;2057;50.858;6.572;2023-09-19T00:32:34;99732.50;;;15.78;100.00
4085;BME280;2057;50.858;6.572;2023-09-19T00:34:59;99726.66;;;15.83;100.00
4085;BME280;2057;50.858;6.572;2023-09-19T00:37:25;99726.75;;;15.91;100.00
4085;BME280;2057;50.858;6.572;2023-09-19T00:39:53;99728.47;;;15.92;100.00
4085;BME280;2057;50.858;6.572;2023-09-19T00:42:22;99734.44;;;15.91;100.00
4085;BME280;2057;50.858;6.572;2023-09-19T00:44:47;99732.81;;;15.98;100.00
4085;BME280;2057;50.858;6.572;2023-09-19T00:47:16;99747.28;;;15.94;100.00
4085;BME280;2057;50.858;6.572;2023-09-19T00:49:43;99745.59;;;15.95;100.00
4085;BME280;2057;50.858;6.572;2023-09-19T00:52:15;99745.69;;;16.03;100.00
4085;BME280;2057;50.858;6.572;2023-09-19T00:54:43;99743.22;;;16.07;100.00
4085;BME280;2057;50.858;6.572;2023-09-19T00:57:09;99746.47;;;15.97;100.00
4085;BME280;2057;50.858;6.572;2023-09-19T00:59:34;99755.03;;;15.97;100.00
4085;BME280;2057;50.858;6.572;2023-09-19T01:02:02;99747.38;;;16.00;100.00
4085;BME280;2057;50.858;6.572;2023-09-19T01:04:30;99752.63;;;16.10;100.00
4085;BME280;2057;50.858;6.572;2023-09-19T01:06:56;99749.94;;;16.00;100.00
4085;BME280;2057;50.858;6.572;2023-09-19T01:09:23;99750.19;;;16.16;100.00
4085;BME280;2057;50.858;6.572;2023-09-19T01:11:50;99755.19;;;16.08;100.00
4085;BME280;2057;50.858;6.572;2023-09-19T01:14:31;99759.31;;;15.98;100.00
4085;BME280;2057;50.858;6.572;2023-09-19T01:17:24;99760.16;;;16.00;100.00
4085;BME280;2057;50.858;6.572;2023-09-19T01:20:10;99764.31;;;15.92;100.00
4085;BME280;2057;50.858;6.572;2023-09-19T01:31:13;99784.44;;;15.72;100.00
4085;BME280;2057;50.858;6.572;2023-09-19T01:33:56;99792.03;;;15.64;100.00
4085;BME280;2057;50.858;6.572;2023-09-19T01:36:35;99785.94;;;15.59;100.00
4085;BME280;2057;50.858;6.572;2023-09-19T01:39:04;99791.84;;;15.55;100.00
4085;BME280;2057;50.858;6.572;2023-09-19T01:44:59;99802.03;;;15.53;100.00
4085;BME280;2057;50.858;6.572;2023-09-19T01:47:36;99797.56;;;15.40;100.00
4085;BME280;2057;50.858;6.572;2023-09-19T01:52:47;99800.00;;;15.34;100.00
4085;BME280;2057;50.858;6.572;2023-09-19T01:55:15;99805.06;;;15.31;100.00
4085;BME280;2057;50.858;6.572;2023-09-19T01:57:49;99809.19;;;15.24;100.00
4085;BME280;2057;50.858;6.572;2023-09-19T02:00:18;99794.91;;;15.34;100.00
4085;BME280;2057;50.858;6.572;2023-09-19T02:02:48;99798.03;;;15.19;100.00
4085;BME280;2057;50.858;6.572;2023-09-19T02:05:22;99810.72;;;15.14;100.00
4085;BME280;2057;50.858;6.572;2023-09-19T02:07:48;99807.44;;;15.20;100.00
4085;BME280;2057;50.858;6.572;2023-09-19T02:10:16;99811.44;;;15.07;100.00
4085;BME280;2057;50.858;6.572;2023-09-19T02:12:42;99811.44;;;15.07;100.00
4085;BME280;2057;50.858;6.572;2023-09-19T02:15:08;99804.41;;;14.97;100.00
4085;BME280;2057;50.858;6.572;2023-09-19T02:17:36;99808.47;;;14.87;100.00
4085;BME280;2057;50.858;6.572;2023-09-19T02:20:03;99808.66;;;14.96;100.00
4085;BME280;2057;50.858;6.572;2023-09-19T02:22:36;99809.41;;;14.90;100.00
4085;BME280;2057;50.858;6.572;2023-09-19T02:25:02;99805.16;;;14.91;100.00
4085;BME280;2057;50.858;6.572;2023-09-19T02:27:30;99806.78;;;14.87;100.00
4085;BME280;2057;50.858;6.572;2023-09-19T02:29:58;99814.44;;;14.87;100.00
4085;BME280;2057;50.858;6.572;2023-09-19T02:32:23;99813.63;;;14.88;100.00
4085;BME280;2057;50.858;6.572;2023-09-19T02:34:51;99804.06;;;14.80;100.00
4085;BME280;2057;50.858;6.572;2023-09-19T02:37:17;99815.91;;;14.74;100.00
4085;BME280;2057;50.858;6.572;2023-09-19T02:39:45;99825.41;;;14.82;100.00
4085;BME280;2057;50.858;6.572;2023-09-19T02:42:13;99821.03;;;14.76;100.00
4085;BME280;2057;50.858;6.572;2023-09-19T02:44:45;99822.84;;;14.80;100.00
4085;BME280;2057;50.858;6.572;2023-09-19T02:47:14;99824.47;;;14.77;100.00
4085;BME280;2057;50.858;6.572;2023-09-19T02:49:41;99827.66;;;14.68;100.00
4085;BME280;2057;50.858;6.572;2023-09-19T02:52:09;99825.78;;;14.61;100.00
4085;BME280;2057;50.858;6.572;2023-09-19T02:54:38;99823.44;;;14.68;100.00
4085;BME280;2057;50.858;6.572;2023-09-19T02:57:06;99817.16;;;14.55;100.00
4085;BME280;2057;50.858;6.572;2023-09-19T02:59:34;99812.00;;;14.54;100.00
4085;BME280;2057;50.858;6.572;2023-09-19T03:02:02;99817.28;;;14.62;100.00
4085;BME280;2057;50.858;6.572;2023-09-19T03:04:28;99821.41;;;14.55;100.00
4085;BME280;2057;50.858;6.572;2023-09-19T03:06:54;99822.53;;;14.66;100.00
4085;BME280;2057;50.858;6.572;2023-09-19T03:09:26;99823.13;;;14.56;100.00
4085;BME280;2057;50.858;6.572;2023-09-19T03:11:52;99827.50;;;14.62;100.00
4085;BME280;2057;50.858;6.572;2023-09-19T03:14:17;99829.88;;;14.52;100.00
4085;BME280;2057;50.858;6.572;2023-09-19T03:16:45;99822.31;;;14.57;100.00
4085;BME280;2057;50.858;6.572;2023-09-19T03:19:13;99831.50;;;14.49;100.00
4085;BME280;2057;50.858;6.572;2023-09-19T03:21:40;99824.13;;;14.63;100.00
4085;BME280;2057;50.858;6.572;2023-09-19T03:24:05;99828.97;;;14.50;100.00
4085;BME280;2057;50.858;6.572;2023-09-19T03:26:31;99819.53;;;14.48;100.00
4085;BME280;2057;50.858;6.572;2023-09-19T03:28:58;99831.34;;;14.42;100.00
4085;BME280;2057;50.858;6.572;2023-09-19T03:31:23;99829.84;;;14.51;100.00
4085;BME280;2057;50.858;6.572;2023-09-19T03:33:49;99834.78;;;14.44;100.00
4085;BME280;2057;50.858;6.572;2023-09-19T03:36:20;99826.16;;;14.39;100.00
4085;BME280;2057;50.858;6.572;2023-09-19T03:38:46;99834.53;;;14.32;100.00
4085;BME280;2057;50.858;6.572;2023-09-19T03:41:11;99838.03;;;14.37;100.00
4085;BME280;2057;50.858;6.572;2023-09-19T03:43:39;99842.22;;;14.34;100.00
4085;BME280;2057;50.858;6.572;2023-09-19T03:46:04;99847.34;;;14.35;100.00
4085;BME280;2057;50.858;6.572;2023-09-19T03:48:32;99842.22;;;14.35;100.00
4085;BME280;2057;50.858;6.572;2023-09-19T03:50:58;99846.38;;;14.30;100.00
4085;BME280;2057;50.858;6.572;2023-09-19T03:53:24;99843.75;;;14.27;100.00
4085;BME280;2057;50.858;6.572;2023-09-19T03:55:51;99851.47;;;14.28;100.00
4085;BME280;2057;50.858;6.572;2023-09-19T03:58:17;99845.53;;;14.30;100.00
4085;BME280;2057;50.858;6.572;2023-09-19T04:00:42;99846.16;;;14.21;100.00
4085;BME280;2057;50.858;6.572;2023-09-19T04:03:07;99848.84;;;14.25;100.00
4085;BME280;2057;50.858;6.572;2023-09-19T04:05:33;99844.44;;;14.20;100.00
4085;BME280;2057;50.858;6.572;2023-09-19T04:07:59;99842.09;;;14.29;100.00
4085;BME280;2057;50.858;6.572;2023-09-19T04:10:24;99841.19;;;14.27;100.00
4085;BME280;2057;50.858;6.572;2023-09-19T04:12:55;99841.06;;;14.21;100.00
4085;BME280;2057;50.858;6.572;2023-09-19T04:15:22;99838.38;;;14.15;100.00
4085;BME280;2057;50.858;6.572;2023-09-19T04:17:49;99841.16;;;14.24;100.00
4085;BME280;2057;50.858;6.572;2023-09-19T04:20:14;99841.28;;;14.30;100.00
4085;BME280;2057;50.858;6.572;2023-09-19T04:22:41;99841.16;;;14.24;100.00
4085;BME280;2057;50.858;6.572;2023-09-19T04:25:06;99838.59;;;14.24;100.00
4085;BME280;2057;50.858;6.572;2023-09-19T04:27:34;99841.06;;;14.21;100.00
4085;BME280;2057;50.858;6.572;2023-09-19T04:30:00;99835.94;;;14.19;100.00
4085;BME280;2057;50.858;6.572;2023-09-19T04:32:28;99838.72;;;14.30;100.00
4085;BME280;2057;50.858;6.572;2023-09-19T04:35:04;99842.19;;;14.32;100.00
4085;BME280;2057;50.858;6.572;2023-09-19T04:37:31;99842.94;;;14.28;100.00
4085;BME280;2057;50.858;6.572;2023-09-19T04:39:56;99839.34;;;14.20;100.00
4085;BME280;2057;50.858;6.572;2023-09-19T04:42:22;99848.34;;;14.05;100.00
4085;BME280;2057;50.858;6.572;2023-09-19T04:44:52;99846.03;;;14.15;100.00
4085;BME280;2057;50.858;6.572;2023-09-19T04:47:20;99848.59;;;14.15;100.00
4085;BME280;2057;50.858;6.572;2023-09-19T04:49:47;99859.94;;;14.26;100.00
4085;BME280;2057;50.858;6.572;2023-09-19T04:52:12;99855.34;;;14.14;100.00
4085;BME280;2057;50.858;6.572;2023-09-19T04:54:40;99856.09;;;14.08;100.00
4085;BME280;2057;50.858;6.572;2023-09-19T04:57:10;99863.69;;;14.07;100.00
4085;BME280;2057;50.858;6.572;2023-09-19T04:59:41;99869.50;;;14.01;100.00
4085;BME280;2057;50.858;6.572;2023-09-19T05:02:09;99879.13;;;14.11;100.00
4085;BME280;2057;50.858;6.572;2023-09-19T05:04:34;99875.16;;;14.23;100.00
4085;BME280;2057;50.858;6.572;2023-09-19T05:07:00;99872.25;;;14.07;100.00
4085;BME280;2057;50.858;6.572;2023-09-19T05:09:31;99878.31;;;14.12;100.00
4085;BME280;2057;50.858;6.572;2023-09-19T05:11:59;99887.38;;;14.01;100.00
4085;BME280;2057;50.858;6.572;2023-09-19T05:14:24;99889.66;;;14.24;100.00
4085;BME280;2057;50.858;6.572;2023-09-19T05:16:50;99887.59;;;14.09;100.00
4085;BME280;2057;50.858;6.572;2023-09-19T05:19:15;99893.38;;;14.02;100.00
4085;BME280;2057;50.858;6.572;2023-09-19T05:21:40;99898.59;;;14.06;100.00
4085;BME280;2057;50.858;6.572;2023-09-19T05:24:06;99895.81;;;13.99;100.00
4085;BME280;2057;50.858;6.572;2023-09-19T05:26:34;99899.38;;;14.04;100.00
4085;BME280;2057;50.858;6.572;2023-09-19T05:29:03;99908.53;;;13.95;100.00
4085;BME280;2057;50.858;6.572;2023-09-19T05:31:30;99906.75;;;13.93;100.00
4085;BME280;2057;50.858;6.572;2023-09-19T05:33:59;99912.50;;;13.86;100.00
4085;BME280;2057;50.858;6.572;2023-09-19T05:36:26;99909.50;;;14.01;100.00
4085;BME280;2057;50.858;6.572;2023-09-19T05:38:54;99907.22;;;14.11;100.00
4085;BME280;2057;50.858;6.572;2023-09-19T05:41:20;99917.19;;;14.02;100.00
4085;BME280;2057;50.858;6.572;2023-09-19T05:43:49;99920.38;;;13.93;100.00
4085;BME280;2057;50.858;6.572;2023-09-19T05:46:16;99929.69;;;13.91;100.00
4085;BME280;2057;50.858;6.572;2023-09-19T05:48:42;99929.72;;;13.93;100.00
4085;BME280;2057;50.858;6.572;2023-09-19T05:51:09;99922.63;;;14.15;100.00
4085;BME280;2057;50.858;6.572;2023-09-19T05:53:35;99937.13;;;14.16;100.00
4085;BME280;2057;50.858;6.572;2023-09-19T05:56:00;99934.31;;;14.06;100.00
4085;BME280;2057;50.858;6.572;2023-09-19T05:58:28;99939.44;;;14.06;100.00
4085;BME280;2057;50.858;6.572;2023-09-19T06:00:56;99940.41;;;14.11;100.00
4085;BME280;2057;50.858;6.572;2023-09-19T06:03:22;99936.94;;;14.09;100.00
4085;BME280;2057;50.858;6.572;2023-09-19T06:05:50;99944.91;;;14.22;100.00
4085;BME280;2057;50.858;6.572;2023-09-19T06:08:18;99943.59;;;14.03;100.00
4085;BME280;2057;50.858;6.572;2023-09-19T06:10:46;99951.44;;;14.10;100.00
4085;BME280;2057;50.858;6.572;2023-09-19T06:13:11;99957.28;;;14.06;100.00
4085;BME280;2057;50.858;6.572;2023-09-19T06:15:39;99956.66;;;14.15;100.00
4085;BME280;2057;50.858;6.572;2023-09-19T06:18:10;99959.91;;;14.09;100.00
4085;BME280;2057;50.858;6.572;2023-09-19T06:20:42;99966.59;;;14.04;100.00
4085;BME280;2057;50.858;6.572;2023-09-19T06:23:11;99964.25;;;14.12;100.00
4085;BME280;2057;50.858;6.572;2023-09-19T06:25:39;99971.03;;;14.11;100.00
4085;BME280;2057;50.858;6.572;2023-09-19T06:28:10;99968.63;;;14.18;100.00
4085;BME280;2057;50.858;6.572;2023-09-19T06:30:38;99966.03;;;14.16;100.00
4085;BME280;2057;50.858;6.572;2023-09-19T06:33:09;99967.66;;;14.12;100.00
4085;BME280;2057;50.858;6.572;2023-09-19T06:35:36;99971.13;;;14.15;100.00
4085;BME280;2057;50.858;6.572;2023-09-19T06:38:02;99966.25;;;14.24;100.00
4085;BME280;2057;50.858;6.572;2023-09-19T06:40:28;99967.34;;;14.34;100.00
4085;BME280;2057;50.858;6.572;2023-09-19T06:42:57;99977.59;;;14.35;100.00
4085;BME280;2057;50.858;6.572;2023-09-19T06:45:22;99975.94;;;14.37;100.00
4085;BME280;2057;50.858;6.572;2023-09-19T06:47:51;99974.53;;;14.49;100.00
4085;BME280;2057;50.858;6.572;2023-09-19T06:50:21;99976.94;;;14.42;100.00
4085;BME280;2057;50.858;6.572;2023-09-19T06:52:48;99972.09;;;14.53;100.00
4085;BME280;2057;50.858;6.572;2023-09-19T06:55:18;99974.44;;;14.46;100.00
4085;BME280;2057;50.858;6.572;2023-09-19T06:57:45;99974.38;;;14.42;100.00
4085;BME280;2057;50.858;6.572;2023-09-19T07:00:12;99975.44;;;14.51;100.00
4085;BME280;2057;50.858;6.572;2023-09-19T07:03:05;99966.16;;;14.54;100.00
4085;BME280;2057;50.858;6.572;2023-09-19T07:05:33;99977.34;;;14.59;100.00
4085;BME280;2057;50.858;6.572;2023-09-19T07:08:09;99968.16;;;14.66;100.00
4085;BME280;2057;50.858;6.572;2023-09-19T07:10:40;99975.88;;;14.68;100.00
4085;BME280;2057;50.858;6.572;2023-09-19T07:13:06;99973.41;;;14.72;100.00
4085;BME280;2057;50.858;6.572;2023-09-19T07:15:35;99974.47;;;14.81;100.00
4085;BME280;2057;50.858;6.572;2023-09-19T07:18:04;99975.66;;;14.95;100.00
4085;BME280;2057;50.858;6.572;2023-09-19T07:20:29;99973.94;;;14.94;100.00
4085;BME280;2057;50.858;6.572;2023-09-19T07:22:57;99977.34;;;14.96;100.00
4085;BME280;2057;50.858;6.572;2023-09-19T07:25:25;99963.97;;;15.06;100.00
4085;BME280;2057;50.858;6.572;2023-09-19T07:27:51;99970.72;;;15.04;100.00
4085;BME280;2057;50.858;6.572;2023-09-19T07:30:19;99967.34;;;15.05;100.00
4085;BME280;2057;50.858;6.572;2023-09-19T07:32:44;99974.34;;;15.13;100.00
4085;BME280;2057;50.858;6.572;2023-09-19T07:35:11;99985.41;;;15.12;100.00
4085;BME280;2057;50.858;6.572;2023-09-19T07:37:44;99991.56;;;15.21;100.00
4085;BME280;2057;50.858;6.572;2023-09-19T07:40:14;99994.50;;;15.39;100.00
4085;BME280;2057;50.858;6.572;2023-09-19T07:42:39;100000.44;;;15.37;100.00
4085;BME280;2057;50.858;6.572;2023-09-19T07:45:09;100005.56;;;15.37;99.75
4085;BME280;2057;50.858;6.572;2023-09-19T07:47:37;100002.19;;;15.39;100.00
4085;BME280;2057;50.858;6.572;2023-09-19T07:50:03;100004.06;;;15.49;100.00
4085;BME280;2057;50.858;6.572;2023-09-19T07:52:29;100002.34;;;15.48;100.00
4085;BME280;2057;50.858;6.572;2023-09-19T07:54:54;100003.41;;;15.56;100.00
4085;BME280;2057;50.858;6.572;2023-09-19T07:57:22;100003.31;;;15.53;99.40
4085;BME280;2057;50.858;6.572;2023-09-19T07:59:48;99999.31;;;15.66;99.46
4085;BME280;2057;50.858;6.572;2023-09-19T08:02:13;100000.22;;;15.68;98.88
4085;BME280;2057;50.858;6.572;2023-09-19T08:04:45;100007.91;;;15.68;97.60
4085;BME280;2057;50.858;6.572;2023-09-19T08:07:23;100004.72;;;15.80;98.69
4085;BME280;2057;50.858;6.572;2023-09-19T08:09:48;100009.16;;;15.89;97.90
4085;BME280;2057;50.858;6.572;2023-09-19T08:12:16;100012.56;;;15.88;97.13
4085;BME280;2057;50.858;6.572;2023-09-19T08:14:42;100006.84;;;15.99;98.00
4085;BME280;2057;50.858;6.572;2023-09-19T08:17:07;100014.63;;;16.06;96.95
4085;BME280;2057;50.858;6.572;2023-09-19T08:19:33;100000.09;;;16.05;95.12
4085;BME280;2057;50.858;6.572;2023-09-19T08:21:59;100001.09;;;16.11;96.12
4085;BME280;2057;50.858;6.572;2023-09-19T08:24:28;99998.59;;;16.16;95.41
4085;BME280;2057;50.858;6.572;2023-09-19T08:26:57;100002.25;;;16.29;96.44
4085;BME280;2057;50.858;6.572;2023-09-19T08:29:24;100010.72;;;16.26;95.58
4085;BME280;2057;50.858;6.572;2023-09-19T08:31:57;100012.31;;;16.20;92.47
4085;BME280;2057;50.858;6.572;2023-09-19T08:34:31;99994.72;;;16.38;91.54
4085;BME280;2057;50.858;6.572;2023-09-19T08:37:03;100009.38;;;16.45;93.84
4085;BME280;2057;50.858;6.572;2023-09-19T08:39:28;99998.13;;;16.39;91.53
4085;BME280;2057;50.858;6.572;2023-09-19T08:41:59;100000.72;;;16.40;89.68
4085;BME280;2057;50.858;6.572;2023-09-19T08:44:26;100005.25;;;16.55;90.49
4085;BME280;2057;50.858;6.572;2023-09-19T08:47:05;100003.56;;;16.57;90.79
4085;BME280;2057;50.858;6.572;2023-09-19T08:50:01;99999.28;;;16.56;87.82
4085;BME280;2057;50.858;6.572;2023-09-19T08:52:48;100001.00;;;16.57;88.51
4085;BME280;2057;50.858;6.572;2023-09-19T08:55:19;100004.56;;;16.64;88.08
4085;BME280;2057;50.858;6.572;2023-09-19T08:57:49;100004.72;;;16.75;87.06
4085;BME280;2057;50.858;6.572;2023-09-19T09:00:20;100008.88;;;16.68;84.87
4085;BME280;2057;50.858;6.572;2023-09-19T09:02:48;100004.78;;;16.80;84.60
4085;BME280;2057;50.858;6.572;2023-09-19T09:05:16;100016.00;;;16.86;84.29
4085;BME280;2057;50.858;6.572;2023-09-19T09:07:49;100019.69;;;17.02;85.35
4085;BME280;2057;50.858;6.572;2023-09-19T09:10:17;100015.28;;;16.93;82.86
4085;BME280;2057;50.858;6.572;2023-09-19T09:12:43;100015.97;;;16.85;82.32
4085;BME280;2057;50.858;6.572;2023-09-19T09:15:09;100022.91;;;16.92;84.23
4085;BME280;2057;50.858;6.572;2023-09-19T09:17:37;100020.59;;;17.06;85.42
4085;BME280;2057;50.858;6.572;2023-09-19T09:20:03;100017.94;;;17.00;83.22
4085;BME280;2057;50.858;6.572;2023-09-19T09:22:31;100019.66;;;16.99;84.38
4085;BME280;2057;50.858;6.572;2023-09-19T09:25:00;100005.19;;;17.03;83.91
4085;BME280;2057;50.858;6.572;2023-09-19T09:27:31;100012.19;;;17.16;84.69
4085;BME280;2057;50.858;6.572;2023-09-19T09:29:59;100003.78;;;17.25;83.22
4085;BME280;2057;50.858;6.572;2023-09-19T09:32:29;100004.56;;;17.19;83.04
4085;BME280;2057;50.858;6.572;2023-09-19T09:34:59;100009.00;;;17.33;84.03
4085;BME280;2057;50.858;6.572;2023-09-19T09:37:26;100000.53;;;17.40;82.14
4085;BME280;2057;50.858;6.572;2023-09-19T09:40:00;100010.03;;;17.46;81.40
4085;BME280;2057;50.858;6.572;2023-09-19T09:42:46;100010.13;;;17.55;82.17
4085;BME280;2057;50.858;6.572;2023-09-19T09:45:22;100010.91;;;17.49;80.99
4085;BME280;2057;50.858;6.572;2023-09-19T09:48:05;100009.25;;;17.53;77.70
4085;BME280;2057;50.858;6.572;2023-09-19T09:50:46;99999.28;;;17.78;79.75
4085;BME280;2057;50.858;6.572;2023-09-19T09:53:28;100000.28;;;17.91;81.37
4085;BME280;2057;50.858;6.572;2023-09-19T09:56:06;99985.75;;;17.93;78.60
4085;BME280;2057;50.858;6.572;2023-09-19T09:58:33;100001.94;;;17.84;77.90
4085;BME280;2057;50.858;6.572;2023-09-19T10:01:00;99989.06;;;17.82;78.24
4085;BME280;2057;50.858;6.572;2023-09-19T10:03:33;99999.25;;;17.76;77.19
4085;BME280;2057;50.858;6.572;2023-09-19T10:06:00;99988.22;;;17.83;78.02
4085;BME280;2057;50.858;6.572;2023-09-19T10:08:36;99994.28;;;17.88;77.91
4085;BME280;2057;50.858;6.572;2023-09-19T10:11:15;99986.72;;;18.01;79.27
4085;BME280;2057;50.858;6.572;2023-09-19T10:13:45;99978.19;;;18.03;78.02
4085;BME280;2057;50.858;6.572;2023-09-19T10:16:13;99985.03;;;18.01;75.73
4085;BME280;2057;50.858;6.572;2023-09-19T10:18:40;99979.34;;;18.35;76.78
4085;BME280;2057;50.858;6.572;2023-09-19T10:21:09;99978.53;;;18.38;76.43
4085;BME280;2057;50.858;6.572;2023-09-19T10:23:38;99982.94;;;18.57;77.17
4085;BME280;2057;50.858;6.572;2023-09-19T10:26:08;99979.34;;;18.35;75.63
4085;BME280;2057;50.858;6.572;2023-09-19T10:28:35;99972.63;;;18.49;76.72
4085;BME280;2057;50.858;6.572;2023-09-19T10:31:04;99969.34;;;18.72;76.86
4085;BME280;2057;50.858;6.572;2023-09-19T10:33:37;99965.25;;;18.94;77.53
4085;BME280;2057;50.858;6.572;2023-09-19T10:36:06;99966.09;;;18.95;74.94
4085;BME280;2057;50.858;6.572;2023-09-19T10:38:35;99965.13;;;18.80;73.83
4085;BME280;2057;50.858;6.572;2023-09-19T10:41:06;99979.66;;;18.78;73.27
4085;BME280;2057;50.858;6.572;2023-09-19T10:43:35;99969.47;;;18.91;73.32
4085;BME280;2057;50.858;6.572;2023-09-19T10:46:07;99958.38;;;18.93;73.86
4085;BME280;2057;50.858;6.572;2023-09-19T10:48:39;99960.97;;;18.96;72.67
4085;BME280;2057;50.858;6.572;2023-09-19T10:51:11;99959.16;;;18.86;72.16
4085;BME280;2057;50.858;6.572;2023-09-19T10:53:51;99968.63;;;18.92;72.78
4085;BME280;2057;50.858;6.572;2023-09-19T10:56:30;99964.41;;;19.03;72.92
4085;BME280;2057;50.858;6.572;2023-09-19T10:59:09;99966.19;;;19.06;71.62
4085;BME280;2057;50.858;6.572;2023-09-19T11:01:56;99965.19;;;18.91;72.05
4085;BME280;2057;50.858;6.572;2023-09-19T11:04:35;99972.13;;;19.03;72.24
4085;BME280;2057;50.858;6.572;2023-09-19T11:07:03;99977.31;;;19.06;71.91
4085;BME280;2057;50.858;6.572;2023-09-19T11:15:07;99978.94;;;18.93;67.86
4085;BME280;2057;50.858;6.572;2023-09-19T11:17:40;99975.34;;;18.71;65.91
4085;BME280;2057;50.858;6.572;2023-09-19T11:30:49;99979.91;;;19.05;66.74
4085;BME280;2057;50.858;6.572;2023-09-19T11:33:26;99991.81;;;18.95;65.32
4085;BME280;2057;50.858;6.572;2023-09-19T11:36:12;99991.78;;;18.92;66.23
4085;BME280;2057;50.858;6.572;2023-09-19T11:46:30;99981.47;;;18.89;67.52
4085;BME280;2057;50.858;6.572;2023-09-19T11:49:08;99973.75;;;18.90;66.64
4085;BME280;2057;50.858;6.572;2023-09-19T11:51:43;99977.28;;;19.00;66.69
4085;BME280;2057;50.858;6.572;2023-09-19T11:54:11;99970.47;;;19.07;67.25
4085;BME280;2057;50.858;6.572;2023-09-19T11:56:45;99976.63;;;19.35;66.66
4085;BME280;2057;50.858;6.572;2023-09-19T11:59:23;99972.38;;;19.42;67.05
4085;BME280;2057;50.858;6.572;2023-09-19T12:02:04;99972.34;;;19.37;66.00
4085;BME280;2057;50.858;6.572;2023-09-19T12:04:41;99980.06;;;19.40;66.67
4085;BME280;2057;50.858;6.572;2023-09-19T12:07:11;99972.41;;;19.57;66.72
4085;BME280;2057;50.858;6.572;2023-09-19T12:09:43;99978.44;;;19.61;66.76
4085;BME280;2057;50.858;6.572;2023-09-19T12:12:10;99974.16;;;19.63;66.29
4085;BME280;2057;50.858;6.572;2023-09-19T12:14:48;99967.28;;;19.70;65.71
4085;BME280;2057;50.858;6.572;2023-09-19T12:17:13;99964.72;;;19.74;64.50
4085;BME280;2057;50.858;6.572;2023-09-19T12:19:39;99975.03;;;19.71;65.25
4085;BME280;2057;50.858;6.572;2023-09-19T12:22:04;99956.16;;;19.72;64.52
4085;BME280;2057;50.858;6.572;2023-09-19T12:24:31;99952.78;;;19.86;64.54
4085;BME280;2057;50.858;6.572;2023-09-19T12:27:06;99955.38;;;20.08;64.30
4085;BME280;2057;50.858;6.572;2023-09-19T12:29:52;99959.69;;;20.09;64.38
4085;BME280;2057;50.858;6.572;2023-09-19T12:32:35;99949.38;;;20.22;63.53
4085;BME280;2057;50.858;6.572;2023-09-19T12:35:08;99955.41;;;20.20;64.21
4085;BME280;2057;50.858;6.572;2023-09-19T12:37:37;99951.97;;;20.43;62.75
4085;BME280;2057;50.858;6.572;2023-09-19T12:40:11;99954.53;;;20.27;61.73
4085;BME280;2057;50.858;6.572;2023-09-19T12:42:47;99946.81;;;20.12;61.24
4085;BME280;2057;50.858;6.572;2023-09-19T12:45:19;99960.56;;;20.25;62.92
4085;BME280;2057;50.858;6.572;2023-09-19T12:48:17;99935.63;;;20.34;62.25
4085;BME280;2057;50.858;6.572;2023-09-19T12:50:59;99936.50;;;20.36;61.91
4085;BME280;2057;50.858;6.572;2023-09-19T12:53:28;99926.19;;;20.30;61.45
4085;BME280;2057;50.858;6.572;2023-09-19T12:56:03;99932.19;;;20.29;61.32
4085;BME280;2057;50.858;6.572;2023-09-19T12:58:32;99932.19;;;20.49;61.89
4085;BME280;2057;50.858;6.572;2023-09-19T13:00:57;99923.59;;;20.58;62.28
4085;BME280;2057;50.858;6.572;2023-09-19T13:08:40;99924.44;;;20.59;62.21
4085;BME280;2057;50.858;6.572;2023-09-19T13:11:14;99930.44;;;20.82;63.05
4085;BME280;2057;50.858;6.572;2023-09-19T13:13:50;99916.69;;;20.88;61.92
4085;BME280;2057;50.858;6.572;2023-09-19T13:16:21;99907.28;;;20.55;62.06
4085;BME280;2057;50.858;6.572;2023-09-19T13:18:53;99909.84;;;20.51;62.90
4085;BME280;2057;50.858;6.572;2023-09-19T13:21:34;99910.69;;;20.46;62.85
4085;BME280;2057;50.858;6.572;2023-09-19T13:24:26;99909.88;;;20.36;62.90
4085;BME280;2057;50.858;6.572;2023-09-19T13:26:56;99920.16;;;20.55;63.24
4085;BME280;2057;50.858;6.572;2023-09-19T13:29:22;99902.97;;;20.58;63.73
4085;BME280;2057;50.858;6.572;2023-09-19T13:31:49;99904.72;;;20.31;63.32
4085;BME280;2057;50.858;6.572;2023-09-19T13:34:17;99908.13;;;20.12;63.93
4085;BME280;2057;50.858;6.572;2023-09-19T13:36:45;99926.19;;;20.27;64.90
4085;BME280;2057;50.858;6.572;2023-09-19T13:39:19;99915.84;;;20.43;63.86
4085;BME280;2057;50.858;6.572;2023-09-19T13:41:46;99909.84;;;20.47;64.93
4085;BME280;2057;50.858;6.572;2023-09-19T13:44:14;99915.00;;;20.33;64.82
4085;BME280;2057;50.858;6.572;2023-09-19T13:46:41;99911.56;;;20.48;64.26
4085;BME280;2057;50.858;6.572;2023-09-19T13:49:11;99929.63;;;20.48;64.19
4085;BME280;2057;50.858;6.572;2023-09-19T13:51:36;99927.91;;;20.41;64.98
4085;BME280;2057;50.858;6.572;2023-09-19T13:54:04;99927.91;;;20.39;64.24
4085;BME280;2057;50.858;6.572;2023-09-19T13:56:30;99917.59;;;20.27;65.45
4085;BME280;2057;50.858;6.572;2023-09-19T13:58:57;99924.47;;;20.29;65.66
4085;BME280;2057;50.858;6.572;2023-09-19T14:01:25;99915.00;;;20.44;66.49
4085;BME280;2057;50.858;6.572;2023-09-19T14:03:54;99915.00;;;20.34;66.22
4085;BME280;2057;50.858;6.572;2023-09-19T14:06:22;99921.00;;;20.50;65.48
4085;BME280;2057;50.858;6.572;2023-09-19T14:08:47;99927.03;;;20.29;65.99
4085;BME280;2057;50.858;6.572;2023-09-19T14:11:15;99919.31;;;20.28;65.43